Centennial, WY

8:33 PM MDT on September 14, 2014 (GMT -0600)
Elk Mountain | Change Station
CLOSE
Current Station
Airport
Location: Elk Mountain,
Elevation: 7300 ft
Nearby Weather Stations

Elev 7300 ft 41.73 °N, 106.46 °W | Updated 18 minutes ago

Partly Cloudy
Partly Cloudy
64 °F
Feels Like 64 °F
N
10
Wind Variable Wind from WSW

Today
High -- | Low -- °F
--% Chance of Precip.
Yesterday
High -- | Low -- °F
Precip. -- in
6:44 AM 7:15 PM
Waning Gibbous, 60% visible
Pressure 30.15 in
Visibility 10.0 miles
Clouds Clear
Dew Point 23 °F
Humidity 21%
Rainfall 0.00 in
Snow Depth 0 in , 4 in , 0 in
UV 0 out of 12
Pollen 6.50 out of 12
Air Quality Not available.
Flu Activity Not available.
METAR KEHY 150215Z AUTO 25009KT 10SM CLR 18/M05 A3015 RMK AO2

More Conditions Fewer Conditions

Pressure 30.15 in
Visibility 10.0 miles
Clouds Clear
Dew Point 23 °F
Humidity 21%
Rainfall 0.00 in
Snow Depth 0 in , 4 in , 0 in
UV 0 out of 12
Pollen 6.50 out of 12
Air Quality Not available.
Flu Activity Not available.
METAR KEHY 150215Z AUTO 25009KT 10SM CLR 18/M05 A3015 RMK AO2

More Conditions Fewer Conditions

10-Day Weather Forecast

Almanac

Astronomy

Sep. 14, 2014 Rise Set
Actual Time 6:44 AM MDT 7:15 PM MDT
Civil Twilight 6:16 AM MDT 7:43 PM MDT
Nautical Twilight 5:43 AM MDT 8:15 PM MDT
Astronomical Twilight 5:09 AM MDT 8:49 PM MDT
Moon 11:06 PM MDT (9/14) 12:56 PM MDT (9/14)
Length of Visible Light 13h 26m
Length of Day
12h 31m
Tomorrow will be 2m 43s shorter.
Waning Gibbous, 60% of the Moon is Illuminated
Today
Waning Gibbous
Sep 15
Last Quarter
Sep 24
New
Oct 1
First Quarter
Oct 8
Full

Today's Extremes

State Highs State Lows

Community

WunderPhotos

Upload Photos

1,753,381 photos uploaded!

Nearby

Snow Depth

Station Depth Elevation
Lewis Lake Divide 0 in 7850 ft
Willow Creek 4 in 8450 ft
Phillips Bench 0 in 8200 ft
Reno Hill 0 in 8500 ft
Blind Bull Summit 1 in 8900 ft

Earthquake Activity

City Distance Mag. Time & Date
No recent earthquake activity has been reported nearby.
Minimum magnitude displayed is 2.5.

Coastal Water Temperatures

Place Temperature
No Stations Reporting

Nearby Weather Stations